sensor_id;sensor_type;location;lat;lon;timestamp;pressure;altitude;pressure_sealevel;temperature;humidity
51585;BME280;37669;50.312;18.670;2022-11-11T00:00:59;49167.47;;;-145.86;92.70
51585;BME280;37669;50.312;18.670;2022-11-11T00:03:26;49179.34;;;-145.86;92.40
51585;BME280;37669;50.312;18.670;2022-11-11T00:05:54;49173.41;;;-145.86;93.04
51585;BME280;37669;50.312;18.670;2022-11-11T00:08:22;49155.59;;;-145.86;92.90
51585;BME280;37669;50.312;18.670;2022-11-11T00:10:49;49165.50;;;-145.86;93.45
51585;BME280;37669;50.312;18.670;2022-11-11T00:13:16;49207.06;;;-145.86;93.64
51585;BME280;37669;50.312;18.670;2022-11-11T00:15:43;49171.44;;;-145.86;93.37
51585;BME280;37669;50.312;18.670;2022-11-11T00:18:11;49185.28;;;-145.86;93.55
51585;BME280;37669;50.312;18.670;2022-11-11T00:20:57;49151.63;;;-145.86;94.16
51585;BME280;37669;50.312;18.670;2022-11-11T00:23:43;49181.31;;;-145.86;94.16
51585;BME280;37669;50.312;18.670;2022-11-11T00:26:27;49179.34;;;-145.86;94.17
51585;BME280;37669;50.312;18.670;2022-11-11T00:28:55;49181.31;;;-145.86;94.11
51585;BME280;37669;50.312;18.670;2022-11-11T00:31:22;49175.38;;;-145.86;94.28
51585;BME280;37669;50.312;18.670;2022-11-11T00:33:51;49187.28;;;-145.86;94.28
51585;BME280;37669;50.312;18.670;2022-11-11T00:36:19;49153.59;;;-145.86;94.70
51585;BME280;37669;50.312;18.670;2022-11-11T00:38:46;49199.16;;;-145.86;94.57
51585;BME280;37669;50.312;18.670;2022-11-11T00:41:15;49161.53;;;-145.86;94.83
51585;BME280;37669;50.312;18.670;2022-11-11T00:43:44;49185.28;;;-145.86;94.64
51585;BME280;37669;50.312;18.670;2022-11-11T00:46:12;49201.13;;;-145.86;94.76
51585;BME280;37669;50.312;18.670;2022-11-11T00:48:57;49195.19;;;-145.86;95.13
51585;BME280;37669;50.312;18.670;2022-11-11T00:51:41;49205.09;;;-145.86;94.85
51585;BME280;37669;50.312;18.670;2022-11-11T00:54:10;49187.28;;;-145.86;95.23
51585;BME280;37669;50.312;18.670;2022-11-11T00:56:37;49187.28;;;-145.86;95.33
51585;BME280;37669;50.312;18.670;2022-11-11T00:59:06;49179.34;;;-145.86;95.19
51585;BME280;37669;50.312;18.670;2022-11-11T01:01:34;49205.09;;;-145.86;95.19
51585;BME280;37669;50.312;18.670;2022-11-11T01:04:02;49213.00;;;-145.86;95.42
51585;BME280;37669;50.312;18.670;2022-11-11T01:06:29;49159.53;;;-145.86;95.40
51585;BME280;37669;50.312;18.670;2022-11-11T01:08:56;49155.59;;;-145.86;94.95
51585;BME280;37669;50.312;18.670;2022-11-11T01:11:25;49187.28;;;-145.86;95.19
51585;BME280;37669;50.312;18.670;2022-11-11T01:13:52;49171.44;;;-145.86;95.30
51585;BME280;37669;50.312;18.670;2022-11-11T01:16:20;49159.53;;;-145.86;95.40
51585;BME280;37669;50.312;18.670;2022-11-11T01:18:48;49175.38;;;-145.86;95.56
51585;BME280;37669;50.312;18.670;2022-11-11T01:21:17;49216.97;;;-145.86;95.53
51585;BME280;37669;50.312;18.670;2022-11-11T01:23:46;49175.38;;;-145.86;95.65
51585;BME280;37669;50.312;18.670;2022-11-11T01:26:16;49191.22;;;-145.86;95.55
51585;BME280;37669;50.312;18.670;2022-11-11T01:28:48;49175.38;;;-145.86;95.81
51585;BME280;37669;50.312;18.670;2022-11-11T01:31:16;49201.13;;;-145.86;95.60
51585;BME280;37669;50.312;18.670;2022-11-11T01:33:43;49199.16;;;-145.86;95.62
51585;BME280;37669;50.312;18.670;2022-11-11T01:36:12;49199.16;;;-145.86;95.48
51585;BME280;37669;50.312;18.670;2022-11-11T01:38:40;49171.44;;;-145.86;95.52
51585;BME280;37669;50.312;18.670;2022-11-11T01:41:10;49195.19;;;-145.86;95.42
51585;BME280;37669;50.312;18.670;2022-11-11T01:43:56;49222.91;;;-145.86;95.11
51585;BME280;37669;50.312;18.670;2022-11-11T01:46:28;49218.94;;;-145.86;94.83
51585;BME280;37669;50.312;18.670;2022-11-11T01:49:00;49226.88;;;-145.86;94.77
51585;BME280;37669;50.312;18.670;2022-11-11T01:51:50;49216.97;;;-145.86;94.31
51585;BME280;37669;50.312;18.670;2022-11-11T01:54:23;49213.00;;;-145.86;94.31
51585;BME280;37669;50.312;18.670;2022-11-11T01:56:56;49222.91;;;-145.86;94.04
51585;BME280;37669;50.312;18.670;2022-11-11T02:03:03;49179.34;;;-145.86;93.54
51585;BME280;37669;50.312;18.670;2022-11-11T02:05:32;49191.22;;;-145.86;93.37
51585;BME280;37669;50.312;18.670;2022-11-11T02:08:19;49222.91;;;-145.86;92.80
51585;BME280;37669;50.312;18.670;2022-11-11T02:11:00;49226.88;;;-145.86;92.35
51585;BME280;37669;50.312;18.670;2022-11-11T02:13:29;49222.91;;;-145.86;92.19
51585;BME280;37669;50.312;18.670;2022-11-11T02:16:14;49222.91;;;-145.86;92.12
51585;BME280;37669;50.312;18.670;2022-11-11T02:18:42;49191.22;;;-145.86;91.92
51585;BME280;37669;50.312;18.670;2022-11-11T02:21:13;49218.94;;;-145.86;91.79
51585;BME280;37669;50.312;18.670;2022-11-11T02:23:44;49195.19;;;-145.86;91.71
51585;BME280;37669;50.312;18.670;2022-11-11T02:26:15;49209.06;;;-145.86;91.46
51585;BME280;37669;50.312;18.670;2022-11-11T02:28:44;49215.00;;;-145.86;91.81
51585;BME280;37669;50.312;18.670;2022-11-11T02:31:11;49226.88;;;-145.86;91.33
51585;BME280;37669;50.312;18.670;2022-11-11T02:33:39;49224.91;;;-145.86;91.72
51585;BME280;37669;50.312;18.670;2022-11-11T02:36:10;49230.84;;;-145.86;91.52
51585;BME280;37669;50.312;18.670;2022-11-11T02:38:41;49232.81;;;-145.86;91.36
51585;BME280;37669;50.312;18.670;2022-11-11T02:41:09;49193.22;;;-145.86;91.31
51585;BME280;37669;50.312;18.670;2022-11-11T02:43:54;49222.91;;;-145.86;91.21
51585;BME280;37669;50.312;18.670;2022-11-11T02:46:22;49224.91;;;-145.86;91.22
51585;BME280;37669;50.312;18.670;2022-11-11T02:48:49;49201.13;;;-145.86;91.42
51585;BME280;37669;50.312;18.670;2022-11-11T02:51:16;49207.06;;;-145.86;91.11
51585;BME280;37669;50.312;18.670;2022-11-11T02:53:43;49199.16;;;-145.86;91.27
51585;BME280;37669;50.312;18.670;2022-11-11T02:56:10;49191.22;;;-145.86;91.18
51585;BME280;37669;50.312;18.670;2022-11-11T02:58:37;49191.22;;;-145.86;91.21
51585;BME280;37669;50.312;18.670;2022-11-11T03:01:05;49234.78;;;-145.86;91.59
51585;BME280;37669;50.312;18.670;2022-11-11T03:03:32;49213.00;;;-145.86;91.10
51585;BME280;37669;50.312;18.670;2022-11-11T03:05:59;49236.78;;;-145.86;91.22
51585;BME280;37669;50.312;18.670;2022-11-11T03:08:27;49195.19;;;-145.86;91.46
51585;BME280;37669;50.312;18.670;2022-11-11T03:10:53;49193.22;;;-145.86;91.19
51585;BME280;37669;50.312;18.670;2022-11-11T03:13:20;49218.94;;;-145.86;91.18
51585;BME280;37669;50.312;18.670;2022-11-11T03:15:48;49207.06;;;-145.86;91.26
51585;BME280;37669;50.312;18.670;2022-11-11T03:18:16;49215.00;;;-145.86;91.37
51585;BME280;37669;50.312;18.670;2022-11-11T03:20:44;49228.84;;;-145.86;91.50
51585;BME280;37669;50.312;18.670;2022-11-11T03:23:29;49215.00;;;-145.86;91.26
51585;BME280;37669;50.312;18.670;2022-11-11T03:25:56;49209.06;;;-145.86;91.42
51585;BME280;37669;50.312;18.670;2022-11-11T03:28:23;49216.97;;;-145.86;91.66
51585;BME280;37669;50.312;18.670;2022-11-11T03:30:50;49230.84;;;-145.86;91.83
51585;BME280;37669;50.312;18.670;2022-11-11T03:33:20;49226.88;;;-145.86;91.92
51585;BME280;37669;50.312;18.670;2022-11-11T03:35:47;49197.16;;;-145.86;91.96
51585;BME280;37669;50.312;18.670;2022-11-11T03:38:14;49213.00;;;-145.86;92.02
51585;BME280;37669;50.312;18.670;2022-11-11T03:40:41;49211.03;;;-145.86;91.98
51585;BME280;37669;50.312;18.670;2022-11-11T03:43:08;49228.84;;;-145.86;91.59
51585;BME280;37669;50.312;18.670;2022-11-11T03:45:35;49218.94;;;-145.86;91.64
51585;BME280;37669;50.312;18.670;2022-11-11T03:48:03;49207.06;;;-145.86;91.83
51585;BME280;37669;50.312;18.670;2022-11-11T03:50:32;49213.00;;;-145.86;91.71
51585;BME280;37669;50.312;18.670;2022-11-11T03:52:59;49181.31;;;-145.86;92.07
51585;BME280;37669;50.312;18.670;2022-11-11T03:55:26;49185.28;;;-145.86;91.93
51585;BME280;37669;50.312;18.670;2022-11-11T03:57:53;49218.94;;;-145.86;92.03
51585;BME280;37669;50.312;18.670;2022-11-11T04:00:22;49203.13;;;-145.86;91.99
51585;BME280;37669;50.312;18.670;2022-11-11T04:02:50;49169.44;;;-145.86;92.06
51585;BME280;37669;50.312;18.670;2022-11-11T04:05:36;49171.44;;;-145.86;92.35
51585;BME280;37669;50.312;18.670;2022-11-11T04:08:21;49171.44;;;-145.86;92.37
51585;BME280;37669;50.312;18.670;2022-11-11T04:11:07;49183.31;;;-145.86;92.74
51585;BME280;37669;50.312;18.670;2022-11-11T04:13:35;49199.16;;;-145.86;92.49
51585;BME280;37669;50.312;18.670;2022-11-11T04:16:19;49175.38;;;-145.86;92.96
51585;BME280;37669;50.312;18.670;2022-11-11T04:18:46;49191.22;;;-145.86;92.72
51585;BME280;37669;50.312;18.670;2022-11-11T04:21:41;49207.06;;;-145.86;92.88
51585;BME280;37669;50.312;18.670;2022-11-11T04:24:12;49191.22;;;-145.86;93.12
51585;BME280;37669;50.312;18.670;2022-11-11T04:27:00;49220.94;;;-145.86;92.76
51585;BME280;37669;50.312;18.670;2022-11-11T04:29:28;49195.19;;;-145.86;92.98
51585;BME280;37669;50.312;18.670;2022-11-11T04:31:55;49226.88;;;-145.86;93.34
51585;BME280;37669;50.312;18.670;2022-11-11T04:34:42;49171.44;;;-145.86;93.29
51585;BME280;37669;50.312;18.670;2022-11-11T04:37:11;49209.06;;;-145.86;93.88
51585;BME280;37669;50.312;18.670;2022-11-11T04:39:38;49171.44;;;-145.86;93.48
51585;BME280;37669;50.312;18.670;2022-11-11T04:42:23;49199.16;;;-145.86;93.81
51585;BME280;37669;50.312;18.670;2022-11-11T04:44:50;49179.34;;;-145.86;94.27
51585;BME280;37669;50.312;18.670;2022-11-11T04:47:35;49159.53;;;-145.86;94.20
51585;BME280;37669;50.312;18.670;2022-11-11T04:50:03;49183.31;;;-145.86;94.20
51585;BME280;37669;50.312;18.670;2022-11-11T04:52:32;49167.47;;;-145.86;94.35
51585;BME280;37669;50.312;18.670;2022-11-11T04:54:59;49191.22;;;-145.86;94.41
51585;BME280;37669;50.312;18.670;2022-11-11T04:57:45;49155.59;;;-145.86;94.73
51585;BME280;37669;50.312;18.670;2022-11-11T05:00:14;49179.34;;;-145.86;94.90
51585;BME280;37669;50.312;18.670;2022-11-11T05:02:41;49187.28;;;-145.86;94.54
51585;BME280;37669;50.312;18.670;2022-11-11T05:05:27;49177.38;;;-145.86;94.61
51585;BME280;37669;50.312;18.670;2022-11-11T05:08:15;49185.28;;;-145.86;94.41
51585;BME280;37669;50.312;18.670;2022-11-11T05:11:00;49189.25;;;-145.86;94.69
51585;BME280;37669;50.312;18.670;2022-11-11T05:13:27;49159.53;;;-145.86;94.25
51585;BME280;37669;50.312;18.670;2022-11-11T05:16:14;49161.53;;;-145.86;94.17
51585;BME280;37669;50.312;18.670;2022-11-11T05:18:59;49179.34;;;-145.86;94.45
51585;BME280;37669;50.312;18.670;2022-11-11T05:21:44;49185.28;;;-145.86;94.74
51585;BME280;37669;50.312;18.670;2022-11-11T05:24:12;49181.31;;;-145.86;94.53
51585;BME280;37669;50.312;18.670;2022-11-11T05:26:57;49169.44;;;-145.86;94.61
51585;BME280;37669;50.312;18.670;2022-11-11T05:29:24;49187.28;;;-145.86;95.23
51585;BME280;37669;50.312;18.670;2022-11-11T05:31:51;49191.22;;;-145.86;95.05
51585;BME280;37669;50.312;18.670;2022-11-11T05:34:18;49149.66;;;-145.86;95.05
51585;BME280;37669;50.312;18.670;2022-11-11T05:36:45;49183.31;;;-145.86;95.10
51585;BME280;37669;50.312;18.670;2022-11-11T05:39:13;49207.06;;;-145.86;95.05
51585;BME280;37669;50.312;18.670;2022-11-11T05:41:40;49163.50;;;-145.86;95.16
51585;BME280;37669;50.312;18.670;2022-11-11T05:44:07;49165.50;;;-145.86;95.45
51585;BME280;37669;50.312;18.670;2022-11-11T05:46:35;49195.19;;;-145.86;95.45
51585;BME280;37669;50.312;18.670;2022-11-11T05:49:02;49169.44;;;-145.86;95.14
51585;BME280;37669;50.312;18.670;2022-11-11T05:51:40;49189.25;;;-145.86;95.60
51585;BME280;37669;50.312;18.670;2022-11-11T05:54:08;49139.75;;;-145.86;95.15
51585;BME280;37669;50.312;18.670;2022-11-11T05:56:36;49179.34;;;-145.86;95.54
51585;BME280;37669;50.312;18.670;2022-11-11T05:59:03;49153.59;;;-145.86;95.64
51585;BME280;37669;50.312;18.670;2022-11-11T06:01:31;49161.53;;;-145.86;95.49
51585;BME280;37669;50.312;18.670;2022-11-11T06:03:58;49179.34;;;-145.86;95.45
51585;BME280;37669;50.312;18.670;2022-11-11T06:06:25;49187.28;;;-145.86;95.55
51585;BME280;37669;50.312;18.670;2022-11-11T06:08:53;49159.53;;;-145.86;95.41
51585;BME280;37669;50.312;18.670;2022-11-11T06:11:20;49163.50;;;-145.86;95.65
51585;BME280;37669;50.312;18.670;2022-11-11T06:13:48;49187.28;;;-145.86;96.02
51585;BME280;37669;50.312;18.670;2022-11-11T06:28:32;49215.00;;;-145.86;96.82
51585;BME280;37669;50.312;18.670;2022-11-11T06:31:01;49179.34;;;-145.86;96.92
51585;BME280;37669;50.312;18.670;2022-11-11T06:33:29;49193.22;;;-145.86;97.08
51585;BME280;37669;50.312;18.670;2022-11-11T06:35:56;49175.38;;;-145.86;96.92
51585;BME280;37669;50.312;18.670;2022-11-11T06:38:23;49167.47;;;-145.86;97.01
51585;BME280;37669;50.312;18.670;2022-11-11T06:40:50;49191.22;;;-145.86;97.25
51585;BME280;37669;50.312;18.670;2022-11-11T06:43:17;49220.94;;;-145.86;97.42
51585;BME280;37669;50.312;18.670;2022-11-11T06:45:45;49199.16;;;-145.86;97.70
51585;BME280;37669;50.312;18.670;2022-11-11T06:48:13;49195.19;;;-145.86;97.69
51585;BME280;37669;50.312;18.670;2022-11-11T06:50:40;49218.94;;;-145.86;97.85
51585;BME280;37669;50.312;18.670;2022-11-11T06:53:09;49197.16;;;-145.86;97.99
51585;BME280;37669;50.312;18.670;2022-11-11T06:55:37;49205.09;;;-145.86;97.80
51585;BME280;37669;50.312;18.670;2022-11-11T06:58:04;49179.34;;;-145.86;97.99
51585;BME280;37669;50.312;18.670;2022-11-11T07:00:31;49226.88;;;-145.86;97.96
51585;BME280;37669;50.312;18.670;2022-11-11T07:02:58;49209.06;;;-145.86;97.89
51585;BME280;37669;50.312;18.670;2022-11-11T07:05:27;49218.94;;;-145.86;97.80
51585;BME280;37669;50.312;18.670;2022-11-11T07:07:54;49201.13;;;-145.86;97.68
51585;BME280;37669;50.312;18.670;2022-11-11T07:10:21;49201.13;;;-145.86;97.31
51585;BME280;37669;50.312;18.670;2022-11-11T07:12:49;49218.94;;;-145.86;96.99
51585;BME280;37669;50.312;18.670;2022-11-11T07:15:16;49213.00;;;-145.86;96.60
51585;BME280;37669;50.312;18.670;2022-11-11T07:17:43;49209.06;;;-145.86;95.81
51585;BME280;37669;50.312;18.670;2022-11-11T07:20:10;49191.22;;;-145.86;95.42
51585;BME280;37669;50.312;18.670;2022-11-11T07:22:38;49254.59;;;-145.86;94.84
51585;BME280;37669;50.312;18.670;2022-11-11T07:25:06;49252.63;;;-145.86;94.38
51585;BME280;37669;50.312;18.670;2022-11-11T07:27:35;49236.78;;;-145.86;93.72
51585;BME280;37669;50.312;18.670;2022-11-11T07:30:04;49230.84;;;-145.86;93.63
51585;BME280;37669;50.312;18.670;2022-11-11T07:32:31;49250.63;;;-145.86;92.96
51585;BME280;37669;50.312;18.670;2022-11-11T07:34:58;49280.34;;;-145.86;92.79
51585;BME280;37669;50.312;18.670;2022-11-11T07:37:25;49218.94;;;-145.86;92.11
51585;BME280;37669;50.312;18.670;2022-11-11T07:39:54;49262.53;;;-145.86;91.65
51585;BME280;37669;50.312;18.670;2022-11-11T07:42:21;49211.03;;;-145.86;91.69
51585;BME280;37669;50.312;18.670;2022-11-11T07:44:48;49262.53;;;-145.86;91.64
51585;BME280;37669;50.312;18.670;2022-11-11T07:47:15;49215.00;;;-145.86;91.17
51585;BME280;37669;50.312;18.670;2022-11-11T07:49:42;49262.53;;;-145.86;90.98
51585;BME280;37669;50.312;18.670;2022-11-11T07:52:09;49222.91;;;-145.86;90.57
51585;BME280;37669;50.312;18.670;2022-11-11T07:54:36;49226.88;;;-145.86;90.74
51585;BME280;37669;50.312;18.670;2022-11-11T07:57:05;49262.53;;;-145.86;90.63
51585;BME280;37669;50.312;18.670;2022-11-11T07:59:32;49260.53;;;-145.86;90.84
51585;BME280;37669;50.312;18.670;2022-11-11T08:01:59;49254.59;;;-145.86;90.96
51585;BME280;37669;50.312;18.670;2022-11-11T08:04:26;49250.63;;;-145.86;91.10
51585;BME280;37669;50.312;18.670;2022-11-11T08:06:53;49250.63;;;-145.86;90.60
51585;BME280;37669;50.312;18.670;2022-11-11T08:09:20;49268.47;;;-145.86;90.58
51585;BME280;37669;50.312;18.670;2022-11-11T08:11:47;49222.91;;;-145.86;90.64
51585;BME280;37669;50.312;18.670;2022-11-11T08:14:32;49272.41;;;-145.86;90.44
51585;BME280;37669;50.312;18.670;2022-11-11T08:16:59;49270.44;;;-145.86;90.60
51585;BME280;37669;50.312;18.670;2022-11-11T08:19:26;49230.84;;;-145.86;90.25
51585;BME280;37669;50.312;18.670;2022-11-11T08:21:53;49258.56;;;-145.86;89.51
51585;BME280;37669;50.312;18.670;2022-11-11T08:24:21;49260.53;;;-145.86;89.01
51585;BME280;37669;50.312;18.670;2022-11-11T08:26:48;49268.47;;;-145.86;88.42
51585;BME280;37669;50.312;18.670;2022-11-11T08:29:15;49284.31;;;-145.86;88.39
51585;BME280;37669;50.312;18.670;2022-11-11T08:31:44;49290.25;;;-145.86;87.97
51585;BME280;37669;50.312;18.670;2022-11-11T08:34:11;49302.13;;;-145.86;87.40
51585;BME280;37669;50.312;18.670;2022-11-11T08:36:38;49270.44;;;-145.86;87.13
51585;BME280;37669;50.312;18.670;2022-11-11T08:39:06;49246.69;;;-145.86;86.56
51585;BME280;37669;50.312;18.670;2022-11-11T08:41:33;49246.69;;;-145.86;86.24
51585;BME280;37669;50.312;18.670;2022-11-11T08:44:00;49242.72;;;-145.86;86.40
51585;BME280;37669;50.312;18.670;2022-11-11T08:46:27;49268.47;;;-145.86;86.23
51585;BME280;37669;50.312;18.670;2022-11-11T08:48:55;49274.41;;;-145.86;85.31
51585;BME280;37669;50.312;18.670;2022-11-11T08:51:22;49236.78;;;-145.86;85.20
51585;BME280;37669;50.312;18.670;2022-11-11T08:53:49;49274.41;;;-145.86;84.55
51585;BME280;37669;50.312;18.670;2022-11-11T08:56:16;49306.09;;;-145.86;83.57
51585;BME280;37669;50.312;18.670;2022-11-11T08:58:43;49294.19;;;-145.86;83.54
51585;BME280;37669;50.312;18.670;2022-11-11T09:01:11;49317.97;;;-145.86;83.44
51585;BME280;37669;50.312;18.670;2022-11-11T09:03:39;49254.59;;;-145.86;83.16
51585;BME280;37669;50.312;18.670;2022-11-11T09:06:10;49302.13;;;-145.86;83.33
51585;BME280;37669;50.312;18.670;2022-11-11T09:08:40;49316.00;;;-145.86;83.15
51585;BME280;37669;50.312;18.670;2022-11-11T09:11:07;49306.09;;;-145.86;82.98
51585;BME280;37669;50.312;18.670;2022-11-11T09:13:34;49288.25;;;-145.86;82.78
51585;BME280;37669;50.312;18.670;2022-11-11T09:16:01;49268.47;;;-145.86;82.87
51585;BME280;37669;50.312;18.670;2022-11-11T09:18:29;49296.19;;;-145.86;83.19
51585;BME280;37669;50.312;18.670;2022-11-11T09:20:57;49280.34;;;-145.86;82.60
51585;BME280;37669;50.312;18.670;2022-11-11T09:23:26;49317.97;;;-145.86;82.40
51585;BME280;37669;50.312;18.670;2022-11-11T09:25:53;49312.03;;;-145.86;82.03
51585;BME280;37669;50.312;18.670;2022-11-11T09:28:20;49323.91;;;-145.86;81.59
51585;BME280;37669;50.312;18.670;2022-11-11T09:30:47;49290.25;;;-145.86;80.54
51585;BME280;37669;50.312;18.670;2022-11-11T09:33:14;49329.84;;;-145.86;80.63
51585;BME280;37669;50.312;18.670;2022-11-11T09:35:42;49302.13;;;-145.86;81.10
51585;BME280;37669;50.312;18.670;2022-11-11T09:38:09;49314.00;;;-145.86;80.67
51585;BME280;37669;50.312;18.670;2022-11-11T09:40:48;49310.03;;;-145.86;80.51
51585;BME280;37669;50.312;18.670;2022-11-11T09:43:25;49306.09;;;-145.86;79.77
51585;BME280;37669;50.312;18.670;2022-11-11T09:46:15;49337.78;;;-145.86;79.52
51585;BME280;37669;50.312;18.670;2022-11-11T09:48:54;49323.91;;;-145.86;77.47
51585;BME280;37669;50.312;18.670;2022-11-11T09:51:26;49325.88;;;-145.86;76.84
51585;BME280;37669;50.312;18.670;2022-11-11T09:53:58;49314.00;;;-145.86;76.56
51585;BME280;37669;50.312;18.670;2022-11-11T09:56:31;49321.94;;;-145.86;76.97
51585;BME280;37669;50.312;18.670;2022-11-11T09:59:04;49321.94;;;-145.86;76.50
51585;BME280;37669;50.312;18.670;2022-11-11T10:01:37;49306.09;;;-145.86;76.76
51585;BME280;37669;50.312;18.670;2022-11-11T10:04:19;49327.88;;;-145.86;77.26
51585;BME280;37669;50.312;18.670;2022-11-11T10:06:51;49270.44;;;-145.86;76.16
51585;BME280;37669;50.312;18.670;2022-11-11T10:09:26;49296.19;;;-145.86;76.20
51585;BME280;37669;50.312;18.670;2022-11-11T10:12:02;49300.16;;;-145.86;76.40
51585;BME280;37669;50.312;18.670;2022-11-11T10:14:35;49329.84;;;-145.86;76.37
51585;BME280;37669;50.312;18.670;2022-11-11T10:17:12;49321.94;;;-145.86;75.68
51585;BME280;37669;50.312;18.670;2022-11-11T10:19:49;49302.13;;;-145.86;74.45
51585;BME280;37669;50.312;18.670;2022-11-11T10:22:20;49327.88;;;-145.86;72.51
51585;BME280;37669;50.312;18.670;2022-11-11T10:24:52;49333.81;;;-145.86;71.87
51585;BME280;37669;50.312;18.670;2022-11-11T10:27:26;49325.88;;;-145.86;72.47
51585;BME280;37669;50.312;18.670;2022-11-11T10:29:54;49335.78;;;-145.86;72.30
51585;BME280;37669;50.312;18.670;2022-11-11T10:32:24;49314.00;;;-145.86;71.85
51585;BME280;37669;50.312;18.670;2022-11-11T10:34:52;49325.88;;;-145.86;70.71
51585;BME280;37669;50.312;18.670;2022-11-11T10:37:22;49333.81;;;-145.86;71.51
51585;BME280;37669;50.312;18.670;2022-11-11T10:40:01;49347.66;;;-145.86;71.76
51585;BME280;37669;50.312;18.670;2022-11-11T10:42:32;49349.66;;;-145.86;70.93
51585;BME280;37669;50.312;18.670;2022-11-11T10:45:00;49337.78;;;-145.86;72.27
51585;BME280;37669;50.312;18.670;2022-11-11T10:47:40;49363.50;;;-145.86;71.61
51585;BME280;37669;50.312;18.670;2022-11-11T10:50:15;49347.66;;;-145.86;71.46
51585;BME280;37669;50.312;18.670;2022-11-11T10:52:47;49333.81;;;-145.86;72.33
51585;BME280;37669;50.312;18.670;2022-11-11T10:55:21;49319.94;;;-145.86;71.23
51585;BME280;37669;50.312;18.670;2022-11-11T10:57:53;49310.03;;;-145.86;71.28
51585;BME280;37669;50.312;18.670;2022-11-11T11:00:21;49337.78;;;-145.86;71.11
51585;BME280;37669;50.312;18.670;2022-11-11T11:02:54;49319.94;;;-145.86;71.67
51585;BME280;37669;50.312;18.670;2022-11-11T11:05:25;49337.78;;;-145.86;71.45
51585;BME280;37669;50.312;18.670;2022-11-11T11:07:56;49308.06;;;-145.86;71.22
51585;BME280;37669;50.312;18.670;2022-11-11T11:10:29;49333.81;;;-145.86;70.81
51585;BME280;37669;50.312;18.670;2022-11-11T11:13:03;49339.75;;;-145.86;71.48
51585;BME280;37669;50.312;18.670;2022-11-11T11:15:38;49357.56;;;-145.86;72.67
51585;BME280;37669;50.312;18.670;2022-11-11T11:18:08;49333.81;;;-145.86;72.78
51585;BME280;37669;50.312;18.670;2022-11-11T11:20:37;49341.72;;;-145.86;72.80
51585;BME280;37669;50.312;18.670;2022-11-11T11:23:04;49337.78;;;-145.86;73.39
51585;BME280;37669;50.312;18.670;2022-11-11T11:25:32;49345.69;;;-145.86;72.52
51585;BME280;37669;50.312;18.670;2022-11-11T11:28:08;49317.97;;;-145.86;71.88
51585;BME280;37669;50.312;18.670;2022-11-11T11:30:36;49327.88;;;-145.86;69.74
51585;BME280;37669;50.312;18.670;2022-11-11T11:33:05;49353.63;;;-145.86;69.39
51585;BME280;37669;50.312;18.670;2022-11-11T11:35:35;49323.91;;;-145.86;70.40
51585;BME280;37669;50.312;18.670;2022-11-11T11:38:03;49373.41;;;-145.86;69.61
51585;BME280;37669;50.312;18.670;2022-11-11T11:40:45;49335.78;;;-145.86;69.67
51585;BME280;37669;50.312;18.670;2022-11-11T11:43:32;49371.44;;;-145.86;68.89
51585;BME280;37669;50.312;18.670;2022-11-11T11:46:01;49361.53;;;-145.86;68.54
51585;BME280;37669;50.312;18.670;2022-11-11T11:48:41;49312.03;;;-145.86;68.35
51585;BME280;37669;50.312;18.670;2022-11-11T11:51:25;49333.81;;;-145.86;69.51
51585;BME280;37669;50.312;18.670;2022-11-11T11:54:03;49316.00;;;-145.86;69.08
51585;BME280;37669;50.312;18.670;2022-11-11T11:56:39;49323.91;;;-145.86;69.81
51585;BME280;37669;50.312;18.670;2022-11-11T11:59:13;49353.63;;;-145.86;70.21
51585;BME280;37669;50.312;18.670;2022-11-11T12:01:51;49337.78;;;-145.86;70.04
51585;BME280;37669;50.312;18.670;2022-11-11T12:04:37;49349.66;;;-145.86;69.63
51585;BME280;37669;50.312;18.670;2022-11-11T12:07:21;49349.66;;;-145.86;68.57
51585;BME280;37669;50.312;18.670;2022-11-11T12:10:02;49347.66;;;-145.86;68.39
51585;BME280;37669;50.312;18.670;2022-11-11T12:12:39;49373.41;;;-145.86;69.17
51585;BME280;37669;50.312;18.670;2022-11-11T12:15:20;49345.69;;;-145.86;69.60
51585;BME280;37669;50.312;18.670;2022-11-11T12:18:02;49341.72;;;-145.86;69.23
51585;BME280;37669;50.312;18.670;2022-11-11T12:20:39;49333.81;;;-145.86;69.05
51585;BME280;37669;50.312;18.670;2022-11-11T12:23:32;49345.69;;;-145.86;69.28
51585;BME280;37669;50.312;18.670;2022-11-11T12:26:07;49302.13;;;-145.86;70.04
51585;BME280;37669;50.312;18.670;2022-11-11T12:28:54;49341.72;;;-145.86;68.92
51585;BME280;37669;50.312;18.670;2022-11-11T12:31:42;49355.59;;;-145.86;69.36
51585;BME280;37669;50.312;18.670;2022-11-11T12:34:21;49323.91;;;-145.86;69.17
51585;BME280;37669;50.312;18.670;2022-11-11T12:36:57;49345.69;;;-145.86;68.89
51585;BME280;37669;50.312;18.670;2022-11-11T12:39:45;49341.72;;;-145.86;69.46
51585;BME280;37669;50.312;18.670;2022-11-11T12:42:24;49347.66;;;-145.86;70.05
51585;BME280;37669;50.312;18.670;2022-11-11T12:44:58;49353.63;;;-145.86;69.91
51585;BME280;37669;50.312;18.670;2022-11-11T12:47:37;49353.63;;;-145.86;70.50
51585;BME280;37669;50.312;18.670;2022-11-11T12:50:17;49339.75;;;-145.86;70.69
51585;BME280;37669;50.312;18.670;2022-11-11T12:52:58;49319.94;;;-145.86;71.04
51585;BME280;37669;50.312;18.670;2022-11-11T12:55:34;49365.50;;;-145.86;71.16
51585;BME280;37669;50.312;18.670;2022-11-11T12:58:21;49306.09;;;-145.86;71.11
51585;BME280;37669;50.312;18.670;2022-11-11T13:01:02;49302.13;;;-145.86;71.52
51585;BME280;37669;50.312;18.670;2022-11-11T13:03:59;49339.75;;;-145.86;71.93
51585;BME280;37669;50.312;18.670;2022-11-11T13:06:47;49341.72;;;-145.86;71.69
51585;BME280;37669;50.312;18.670;2022-11-11T13:12:13;49321.94;;;-145.86;71.75